Latest Coastal Weather Observations for Sydney Harbour

IDN60701

Issued at 9:35 am EST Thursday 18 September 2014 (issued every 10 minutes, with the page automatically refreshed every 10 minutes)

About coastal observations | Map of coastal stations | Coastal observations for NSW | Marine services | Other Formats
Station Details ID: 066196 Name: WEDDING CAKE WEST Lat: -33.84 Lon: 151.26 Height: 6.0 m
Data from the previous 72 hours. | See also: Recent months for locations in New South Wales
Date/Time
EST
Temp

°C
Wind Pressure Rain
since 9am
mm
Weather Cloud Vis
km
Sea
Height
m
Swell
Dir
 
Speed
knots
Gust
knots
hPa Trend Height
m
Period
s
Dir
18/09:30am 14.3 WSW 13 17 - - - - - - - - - -
18/09:00am 14.0 WSW 15 20 - - - - - - - - - -
18/08:30am 13.7 WSW 18 25 - - - - - - - - - -
18/08:00am 13.8 WSW 18 23 - - - - - - - - - -
18/07:49am 13.7 WSW 17 27 - - - - - - - - - -
18/07:30am 13.9 WSW 16 23 - - - - - - - - - -
18/07:04am 13.9 WSW 17 27 - - - - - - - - - -
18/07:00am 13.9 WSW 17 26 - - - - - - - - - -
18/06:30am 14.0 WSW 19 25 - - - - - - - - - -
18/06:00am 14.1 SW 15 18 - - - - - - - - - -
18/05:30am 13.9 WSW 9 13 - - - - - - - - - -
18/05:00am 14.2 WSW 15 19 - - - - - - - - - -
18/04:30am 14.3 WSW 17 21 - - - - - - - - - -
18/04:00am 14.6 SW 19 25 - - - - - - - - - -
18/03:30am 14.8 SW 17 22 - - - - - - - - - -
18/03:00am 14.5 SW 15 21 - - - - - - - - - -
18/02:30am 14.7 SW 14 16 - - - - - - - - - -
18/02:00am 14.7 W 9 13 - - - - - - - - - -
18/01:30am 14.9 W 11 14 - - - - - - - - - -
18/01:00am 15.1 W 11 15 - - - - - - - - - -
18/12:30am 15.5 W 13 19 - - - - - - - - - -
18/12:00am 15.7 W 14 19 - - - - - - - - - -
 
Date/Time
EST
Temp

°C
Wind Pressure Rain
since 9am
mm
Weather Cloud Vis
km
Sea
Height
m
Swell
Dir
 
Speed
knots
Gust
knots
hPa Trend Height
m
Period
s
Dir
17/11:30pm 16.0 W 16 22 - - - - - - - - - -
17/11:00pm 16.3 W 15 20 - - - - - - - - - -
17/10:30pm 16.6 W 17 21 - - - - - - - - - -
17/10:00pm 16.7 WSW 13 18 - - - - - - - - - -
17/09:30pm 16.9 W 11 16 - - - - - - - - - -
17/09:00pm 17.0 W 9 13 - - - - - - - - - -
17/08:30pm 17.4 W 9 11 - - - - - - - - - -
17/08:00pm 17.6 W 8 11 - - - - - - - - - -
17/07:30pm 17.9 WSW 12 17 - - - - - - - - - -
17/07:00pm 18.3 WSW 12 19 - - - - - - - - - -
17/06:30pm 18.5 WSW 15 23 - - - - - - - - - -
17/06:00pm 18.9 W 14 22 - - - - - - - - - -
17/05:30pm 19.4 W 16 22 - - - - - - - - - -
17/05:00pm 19.6 W 16 22 - - - - - - - - - -
17/04:50pm 19.6 WSW 15 25 - - - - - - - - - -
17/04:30pm 19.7 W 15 19 - - - - - - - - - -
17/04:00pm 19.9 W 16 26 - - - - - - - - - -
17/03:56pm 19.9 W 16 26 - - - - - - - - - -
17/03:53pm 19.9 W 20 26 - - - - - - - - - -
17/03:30pm 19.8 WSW 18 29 - - - - - - - - - -
17/03:08pm 19.6 W 15 25 - - - - - - - - - -
17/03:00pm 19.8 W 18 25 - - - - - - - - - -
17/02:30pm 19.7 WSW 18 30 - - - - - - - - - -
17/02:28pm 19.7 SW 19 30 - - - - - - - - - -
17/02:00pm 19.8 WSW 13 16 - - - - - - - - - -
17/01:30pm 19.6 WSW 16 21 - - - - - - - - - -
17/01:00pm 19.2 W 16 22 - - - - - - - - - -
17/12:30pm 18.9 WSW 15 21 - - - - - - - - - -
17/12:00pm 18.8 WSW 14 22 - - - - - - - - - -
17/11:30am 18.6 W 15 23 - - - - - - - - - -
17/11:00am 18.2 W 21 28 - - - - - - - - - -
17/10:30am 17.8 WSW 18 24 - - - - - - - - - -
17/10:00am 17.3 WSW 23 33 - - - - - - - - - -
17/09:41am 17.2 WSW 22 32 - - - - - - - - - -
17/09:30am 17.1 W 22 29 - - - - - - - - - -
17/09:00am 16.8 W 21 31 - - - - - - - - - -
17/08:51am 16.7 W 21 31 - - - - - - - - - -
17/08:30am 16.5 W 21 29 - - - - - - - - - -
17/08:16am 16.4 W 21 31 - - - - - - - - - -
17/08:00am 16.4 W 19 24 - - - - - - - - - -
17/07:30am 15.9 W 16 23 - - - - - - - - - -
17/07:00am 15.8 W 17 22 - - - - - - - - - -
17/06:30am 15.9 W 17 22 - - - - - - - - - -
17/06:00am 16.1 W 13 17 - - - - - - - - - -
17/05:30am 16.1 W 10 14 - - - - - - - - - -
17/05:00am 15.7 W 7 9 - - - - - - - - - -
17/04:30am 15.5 W 6 8 - - - - - - - - - -
17/04:00am 15.6 W 6 7 - - - - - - - - - -
17/03:30am 16.0 WNW 10 15 - - - - - - - - - -
17/03:00am 16.1 WNW 9 11 - - - - - - - - - -
17/02:30am 16.4 W 10 12 - - - - - - - - - -
17/02:00am 16.8 W 12 17 - - - - - - - - - -
17/01:30am 17.0 W 15 19 - - - - - - - - - -
17/01:00am 16.8 W 16 21 - - - - - - - - - -
17/12:30am 17.0 W 14 19 - - - - - - - - - -
17/12:00am 17.1 W 16 20 - - - - - - - - - -
 
Date/Time
EST
Temp

°C
Wind Pressure Rain
since 9am
mm
Weather Cloud Vis
km
Sea
Height
m
Swell
Dir
 
Speed
knots
Gust
knots
hPa Trend Height
m
Period
s
Dir
16/11:30pm 17.1 WNW 15 21 - - - - - - - - - -
16/11:00pm 17.0 WNW 15 19 - - - - - - - - - -
16/10:30pm 17.1 WNW 13 18 - - - - - - - - - -
16/10:00pm 17.3 WNW 14 19 - - - - - - - - - -
16/09:30pm 17.8 W 12 16 - - - - - - - - - -
16/09:00pm 18.1 WNW 16 20 - - - - - - - - - -
16/08:30pm 18.5 W 15 20 - - - - - - - - - -
16/08:00pm 18.8 W 13 20 - - - - - - - - - -
16/07:30pm 19.2 W 15 21 - - - - - - - - - -
16/07:00pm 19.5 W 17 27 - - - - - - - - - -
16/06:43pm 20.1 W 19 29 - - - - - - - - - -
16/06:30pm 20.4 W 18 26 - - - - - - - - - -
16/06:06pm 21.0 W 17 27 - - - - - - - - - -
16/06:00pm 21.0 W 19 25 - - - - - - - - - -
16/05:44pm 21.3 W 16 27 - - - - - - - - - -
16/05:30pm 21.6 W 17 22 - - - - - - - - - -
16/05:00pm 22.1 W 11 14 - - - - - - - - - -
16/04:30pm 19.4 NNE 4 6 - - - - - - - - - -
16/04:00pm 19.5 NNE 10 12 - - - - - - - - - -
16/03:30pm 19.6 N 11 14 - - - - - - - - - -
16/03:00pm 18.7 N 16 17 - - - - - - - - - -
16/02:30pm 18.5 N 13 17 - - - - - - - - - -
16/02:00pm 18.6 NNE 15 17 - - - - - - - - - -
16/01:30pm 18.5 NNE 18 22 - - - - - - - - - -
16/01:00pm 18.5 NNE 20 24 - - - - - - - - - -
16/12:30pm 18.5 NNE 20 26 - - - - - - - - - -
16/12:00pm 18.3 NNE 20 25 - - - - - - - - - -
16/11:30am 18.4 NNE 17 21 - - - - - - - - - -
16/11:00am 18.6 NNE 18 23 - - - - - - - - - -
16/10:30am 18.6 N 13 17 - - - - - - - - - -
16/10:00am 18.3 NNE 19 26 - - - - - - - - - -
16/09:30am 18.3 NNE 24 29 - - - - - - - - - -
16/09:00am 18.1 NNE 21 25 - - - - - - - - - -
16/08:30am 18.4 NNE 17 23 - - - - - - - - - -
16/08:00am 18.5 N 12 15 - - - - - - - - - -
16/07:30am 18.1 NNE 15 18 - - - - - - - - - -
16/07:00am 17.8 N 13 17 - - - - - - - - - -
16/06:30am 17.1 N 9 14 - - - - - - - - - -
16/06:00am 17.2 NW 8 13 - - - - - - - - - -
16/05:30am 17.0 NNE 17 21 - - - - - - - - - -
16/05:00am 15.6 N 13 16 - - - - - - - - - -
16/04:30am 16.6 WNW 7 9 - - - - - - - - - -
16/04:00am 17.9 NNE 13 17 - - - - - - - - - -
16/03:30am 17.7 NNE 15 19 - - - - - - - - - -
16/03:00am 17.6 NNE 17 22 - - - - - - - - - -
16/02:30am 17.6 NNE 18 22 - - - - - - - - - -
16/02:00am 17.4 NNE 19 22 - - - - - - - - - -
16/01:30am 17.5 NNE 17 21 - - - - - - - - - -
16/01:00am 17.2 NE 11 14 - - - - - - - - - -
16/12:30am 16.8 N 5 8 - - - - - - - - - -
16/12:00am 17.6 NNW 9 11 - - - - - - - - - -
 
Date/Time
EST
Temp

°C
Wind Pressure Rain
since 9am
mm
Weather Cloud Vis
km
Sea
Height
m
Swell
Dir
 
Speed
knots
Gust
knots
hPa Trend Height
m
Period
s
Dir
15/11:30pm 17.9 NNE 11 15 - - - - - - - - - -
15/11:00pm 17.8 NNE 15 17 - - - - - - - - - -
15/10:30pm 17.8 NNE 14 17 - - - - - - - - - -
15/10:00pm 17.8 NNE 14 16 - - - - - - - - - -
15/09:30pm 17.7 NE 13 16 - - - - - - - - - -
15/09:00pm 17.7 NE 13 16 - - - - - - - - - -
15/08:30pm 17.7 NE 15 18 - - - - - - - - - -
15/08:00pm 17.6 NE 14 16 - - - - - - - - - -
15/07:30pm 17.7 NE 15 17 - - - - - - - - - -
15/07:00pm 17.7 NE 14 17 - - - - - - - - - -
15/06:30pm 17.7 NE 14 18 - - - - - - - - - -
15/06:00pm 17.7 NE 14 16 - - - - - - - - - -
15/05:30pm 17.7 NE 13 16 - - - - - - - - - -
15/05:00pm 17.8 NE 12 14 - - - - - - - - - -
15/04:30pm 17.9 NE 12 15 - - - - - - - - - -
15/04:00pm 17.9 NE 13 16 - - - - - - - - - -
15/03:30pm 17.9 ENE 13 15 - - - - - - - - - -
15/03:00pm 17.9 ENE 12 14 - - - - - - - - - -
15/02:30pm 17.9 ENE 11 13 - - - - - - - - - -
15/02:00pm 17.9 ENE 10 13 - - - - - - - - - -
15/01:30pm 17.9 ENE 10 12 - - - - - - - - - -
15/01:00pm 17.8 ENE 9 12 - - - - - - - - - -
15/12:30pm 18.0 ENE 9 11 - - - - - - - - - -
15/12:00pm 17.6 ENE 9 11 - - - - - - - - - -
15/11:30am 17.4 ENE 8 10 - - - - - - - - - -
15/11:00am 17.8 ENE 8 9 - - - - - - - - - -
15/10:30am 18.0 ENE 6 8 - - - - - - - - - -
15/10:00am 19.6 SW 3 4 - - - - - - - - - -

Other Formats:

Comma delimited format used in spreadsheet applications
http://www.bom.gov.au/fwo/IDN60701/IDN60701.95766.axf

JavaScript Object Notation format (JSON) in row-major order
http://www.bom.gov.au/fwo/IDN60701/IDN60701.95766.json